createdAt,value
2022-09-26T00:01:08.360Z,18.92
2022-09-26T00:03:36.133Z,18.39
2022-09-26T00:06:04.263Z,19.39
2022-09-26T00:08:31.235Z,19.48
2022-09-26T00:10:59.895Z,20.37
2022-09-26T00:13:27.950Z,20.26
2022-09-26T00:15:56.026Z,20.35
2022-09-26T00:18:24.041Z,20.50
2022-09-26T00:20:51.172Z,20.27
2022-09-26T00:23:18.227Z,19.53
2022-09-26T00:25:48.440Z,18.31
2022-09-26T00:28:15.479Z,18.07
2022-09-26T00:30:42.918Z,17.59
2022-09-26T00:33:09.743Z,18.77
2022-09-26T00:35:36.677Z,19.49
2022-09-26T00:38:03.977Z,20.01
2022-09-26T00:40:31.363Z,19.61
2022-09-26T00:42:59.063Z,19.98
2022-09-26T00:45:30.591Z,20.38
2022-09-26T00:48:03.873Z,20.62
2022-09-26T00:50:39.350Z,20.80
2022-09-26T00:53:10.452Z,21.03
2022-09-26T00:55:41.481Z,21.19
2022-09-26T00:58:14.856Z,21.07
2022-09-26T01:00:42.963Z,21.76
2022-09-26T01:03:09.856Z,21.19
2022-09-26T01:05:37.493Z,21.18
2022-09-26T01:08:04.796Z,20.75
2022-09-26T01:10:32.761Z,21.13
2022-09-26T01:13:00.722Z,20.77
2022-09-26T01:15:27.651Z,21.25
2022-09-26T01:17:54.538Z,20.55
2022-09-26T01:20:50.146Z,20.51
2022-09-26T01:23:37.974Z,20.43
2022-09-26T01:26:28.719Z,20.50
2022-09-26T01:29:29.512Z,20.78
2022-09-26T01:32:27.809Z,21.73
2022-09-26T01:35:32.287Z,21.00
2022-09-26T01:38:14.856Z,20.75
2022-09-26T01:40:44.498Z,19.62
2022-09-26T01:43:14.471Z,20.05
2022-09-26T01:45:53.445Z,20.25
2022-09-26T01:48:31.621Z,20.51
2022-09-26T01:51:04.522Z,20.13
2022-09-26T01:53:31.306Z,20.10
2022-09-26T01:56:04.356Z,19.99
2022-09-26T01:58:38.443Z,20.77
2022-09-26T02:01:10.751Z,20.15
2022-09-26T02:03:42.084Z,19.88
2022-09-26T02:06:12.409Z,20.19
2022-09-26T02:08:45.955Z,19.79
2022-09-26T02:11:17.473Z,20.17
2022-09-26T02:14:03.972Z,21.56
2022-09-26T02:16:40.908Z,21.35
2022-09-26T02:19:20.160Z,21.11
2022-09-26T02:21:47.333Z,20.97
2022-09-26T02:24:14.525Z,20.96
2022-09-26T02:26:42.510Z,20.77
2022-09-26T02:29:10.498Z,20.92
2022-09-26T02:31:41.940Z,20.85
2022-09-26T02:34:09.168Z,21.27
2022-09-26T02:36:36.794Z,21.32
2022-09-26T02:39:03.738Z,21.67
2022-09-26T02:42:17.567Z,20.93
2022-09-26T02:44:47.112Z,21.44
2022-09-26T02:47:20.000Z,21.88
2022-09-26T02:50:14.239Z,21.12
2022-09-26T02:53:08.811Z,20.01
2022-09-26T02:55:54.099Z,19.15
2022-09-26T02:58:45.901Z,19.85
2022-09-26T03:01:26.160Z,19.58
2022-09-26T03:04:18.596Z,19.93
2022-09-26T03:06:47.567Z,20.29
2022-09-26T03:09:15.427Z,20.38
2022-09-26T03:11:43.487Z,21.23
2022-09-26T03:14:11.210Z,21.54
2022-09-26T03:16:40.494Z,21.20
2022-09-26T03:19:14.923Z,21.72
2022-09-26T03:21:42.260Z,22.03
2022-09-26T03:24:09.959Z,21.97
2022-09-26T03:26:36.875Z,21.19
2022-09-26T03:29:03.916Z,21.41
2022-09-26T03:31:31.623Z,21.55
2022-09-26T03:33:58.601Z,21.80
2022-09-26T03:36:25.700Z,21.30
2022-09-26T03:38:52.585Z,20.53
2022-09-26T03:41:19.823Z,19.10
2022-09-26T03:43:46.738Z,18.94
2022-09-26T03:46:13.672Z,18.54
2022-09-26T03:48:40.609Z,18.43
2022-09-26T03:51:09.812Z,19.08
2022-09-26T03:53:39.013Z,19.78
2022-09-26T03:56:08.735Z,19.53
2022-09-26T03:58:35.753Z,20.34
2022-09-26T04:01:08.309Z,20.35
2022-09-26T04:03:36.734Z,20.40
2022-09-26T04:06:04.720Z,20.98
2022-09-26T04:08:32.031Z,21.50
2022-09-26T04:11:03.473Z,21.21
2022-09-26T04:13:50.702Z,21.41
2022-09-26T04:16:20.263Z,21.14
2022-09-26T04:18:48.039Z,20.73
2022-09-26T04:21:15.407Z,20.57
2022-09-26T04:23:43.877Z,20.55
2022-09-26T04:26:21.721Z,20.25
2022-09-26T04:28:51.189Z,20.12
2022-09-26T04:31:18.435Z,19.75
2022-09-26T04:33:45.411Z,19.47
2022-09-26T04:36:14.052Z,19.15
2022-09-26T04:38:41.240Z,19.01
2022-09-26T04:41:27.961Z,19.17
2022-09-26T04:43:55.744Z,19.12
2022-09-26T04:46:30.169Z,19.23
2022-09-26T04:48:59.559Z,19.77
2022-09-26T04:51:28.159Z,19.25
2022-09-26T04:53:55.383Z,19.54
2022-09-26T04:56:23.625Z,19.93
2022-09-26T04:58:50.859Z,20.60
2022-09-26T05:01:19.929Z,21.27
2022-09-26T05:03:46.883Z,21.61
2022-09-26T05:06:14.390Z,21.55
2022-09-26T05:08:42.732Z,21.59
2022-09-26T05:11:09.842Z,21.38
2022-09-26T05:13:38.996Z,20.83
2022-09-26T05:16:08.904Z,20.62
2022-09-26T05:18:36.680Z,20.81
2022-09-26T05:21:06.172Z,20.35
2022-09-26T05:23:52.104Z,19.93
2022-09-26T05:26:32.609Z,19.43
2022-09-26T05:29:08.360Z,19.29
2022-09-26T05:31:44.115Z,19.20
2022-09-26T05:34:18.398Z,19.19
2022-09-26T05:36:46.268Z,19.01
2022-09-26T05:39:31.450Z,19.01
2022-09-26T05:41:59.709Z,19.18
2022-09-26T05:44:27.575Z,18.91
2022-09-26T05:46:57.470Z,19.21
2022-09-26T05:49:25.283Z,18.95
2022-09-26T05:51:53.931Z,19.18
2022-09-26T05:54:20.855Z,19.30
2022-09-26T05:56:48.370Z,19.24
2022-09-26T05:59:15.527Z,19.18
2022-09-26T06:01:42.683Z,19.75
2022-09-26T06:04:10.465Z,19.60
2022-09-26T06:06:37.373Z,19.60
2022-09-26T06:09:04.302Z,19.48
2022-09-26T06:11:31.293Z,19.76
2022-09-26T06:14:00.873Z,20.52
2022-09-26T06:16:28.759Z,19.83
2022-09-26T06:18:58.919Z,20.00
2022-09-26T06:21:25.862Z,20.92
2022-09-26T06:24:41.235Z,20.84
2022-09-26T06:27:08.108Z,20.87
2022-09-26T06:29:35.061Z,21.52
2022-09-26T06:32:02.126Z,21.86
2022-09-26T06:34:29.037Z,21.95
2022-09-26T06:36:55.917Z,22.16
2022-09-26T06:39:23.085Z,22.27
2022-09-26T06:41:51.483Z,21.87
2022-09-26T06:44:18.595Z,21.19
2022-09-26T06:46:45.517Z,21.30
2022-09-26T06:49:12.678Z,20.61
2022-09-26T06:51:39.675Z,19.13
2022-09-26T06:54:06.682Z,20.14
2022-09-26T06:56:33.591Z,19.52
2022-09-26T06:59:00.416Z,19.69
2022-09-26T07:01:27.545Z,19.71
2022-09-26T07:03:54.649Z,19.40
2022-09-26T07:06:21.559Z,20.07
2022-09-26T07:09:02.306Z,20.95
2022-09-26T07:14:17.895Z,20.19
2022-09-26T07:16:45.227Z,20.55
2022-09-26T07:19:12.742Z,19.95
2022-09-26T07:21:39.836Z,21.12
2022-09-26T07:24:08.295Z,20.59
2022-09-26T07:26:35.562Z,20.33
2022-09-26T07:29:02.455Z,20.07
2022-09-26T07:31:29.617Z,19.30
2022-09-26T07:33:56.724Z,20.51
2022-09-26T07:36:23.659Z,20.56
2022-09-26T07:38:50.891Z,19.30
2022-09-26T07:41:18.001Z,19.73
2022-09-26T07:46:50.355Z,20.67
2022-09-26T07:49:36.043Z,21.29
2022-09-26T07:52:02.897Z,21.43
2022-09-26T07:54:29.794Z,21.99
2022-09-26T07:56:56.641Z,22.56
2022-09-26T07:59:23.623Z,22.63
2022-09-26T08:01:52.854Z,22.88
2022-09-26T08:04:24.065Z,22.78
2022-09-26T08:06:51.074Z,22.57
2022-09-26T08:09:17.945Z,22.17
2022-09-26T08:11:45.352Z,22.09
2022-09-26T08:14:12.283Z,22.78
2022-09-26T08:16:42.149Z,21.80
2022-09-26T08:19:10.922Z,21.44
2022-09-26T08:21:37.760Z,23.85
2022-09-26T08:24:04.848Z,23.64
2022-09-26T08:26:31.795Z,23.56
2022-09-26T08:29:00.093Z,24.23
2022-09-26T08:31:27.019Z,24.57
2022-09-26T08:33:54.188Z,25.18
2022-09-26T08:36:21.104Z,25.37
2022-09-26T08:38:50.180Z,24.46
2022-09-26T08:41:39.624Z,23.23
2022-09-26T08:44:46.793Z,24.11
2022-09-26T08:47:49.525Z,23.91
2022-09-26T08:50:23.970Z,23.02
2022-09-26T08:53:01.973Z,23.36
2022-09-26T08:55:37.556Z,23.13
2022-09-26T08:58:19.736Z,23.06
2022-09-26T09:00:49.058Z,22.97
2022-09-26T09:03:21.883Z,23.13
2022-09-26T09:05:51.296Z,22.25
2022-09-26T09:08:23.424Z,21.98
2022-09-26T09:11:13.445Z,20.58
2022-09-26T09:13:47.128Z,21.67
2022-09-26T09:16:35.688Z,20.73
2022-09-26T09:19:24.539Z,20.79
2022-09-26T09:22:32.712Z,20.76
2022-09-26T09:25:22.783Z,21.46
2022-09-26T09:28:15.925Z,21.19
2022-09-26T09:30:46.278Z,22.40
2022-09-26T09:33:28.704Z,22.69
2022-09-26T09:35:57.126Z,22.58
2022-09-26T09:38:28.504Z,23.53
2022-09-26T09:41:00.641Z,23.27
2022-09-26T09:43:32.549Z,22.27
2022-09-26T09:46:06.095Z,22.90
2022-09-26T09:48:33.496Z,23.25
2022-09-26T09:51:15.448Z,22.50
2022-09-26T09:54:07.424Z,22.71
2022-09-26T09:57:09.091Z,23.21
2022-09-26T09:59:59.498Z,22.95
2022-09-26T10:02:48.094Z,24.49
2022-09-26T10:05:25.708Z,23.87
2022-09-26T10:07:59.395Z,22.78
2022-09-26T10:10:40.546Z,22.68
2022-09-26T10:13:11.272Z,22.87
2022-09-26T10:15:54.639Z,23.46
2022-09-26T10:18:26.530Z,23.58
2022-09-26T10:21:02.744Z,23.58
2022-09-26T10:23:40.901Z,23.71
2022-09-26T10:26:11.045Z,22.07
2022-09-26T10:28:48.367Z,21.86
2022-09-26T10:31:41.362Z,21.46
2022-09-26T10:34:30.528Z,20.73
2022-09-26T10:36:57.826Z,20.87
2022-09-26T10:39:44.864Z,21.70
2022-09-26T10:42:20.335Z,22.26
2022-09-26T10:44:48.360Z,23.29
2022-09-26T10:47:22.431Z,23.95
2022-09-26T10:50:10.250Z,22.47
2022-09-26T10:52:40.234Z,23.35
2022-09-26T10:55:15.461Z,22.32
2022-09-26T10:58:08.985Z,22.27
2022-09-26T11:00:49.628Z,23.76
2022-09-26T11:03:21.051Z,23.79
2022-09-26T11:06:00.472Z,24.13
2022-09-26T11:08:32.525Z,24.65
2022-09-26T11:11:02.045Z,22.04
2022-09-26T11:13:32.427Z,22.08
2022-09-26T11:16:05.300Z,22.23
2022-09-26T11:18:50.222Z,22.79
2022-09-26T11:21:29.735Z,22.16
2022-09-26T11:24:04.084Z,21.77
2022-09-26T11:26:57.963Z,22.36
2022-09-26T11:29:48.396Z,23.44
2022-09-26T11:32:24.756Z,22.43
2022-09-26T11:34:54.489Z,22.79
2022-09-26T11:37:53.692Z,22.97
2022-09-26T11:40:50.222Z,23.48
2022-09-26T11:43:46.583Z,23.19
2022-09-26T11:47:02.655Z,23.13
2022-09-26T11:49:51.882Z,23.75
2022-09-26T11:52:21.780Z,23.98
2022-09-26T11:55:17.920Z,23.40
2022-09-26T11:57:50.810Z,24.51
2022-09-26T12:00:27.839Z,24.24
2022-09-26T12:03:22.546Z,24.81
2022-09-26T12:05:59.642Z,24.98
2022-09-26T12:08:37.699Z,24.48
2022-09-26T12:11:20.247Z,25.04
2022-09-26T12:13:55.580Z,25.17
2022-09-26T12:16:32.052Z,24.64
2022-09-26T12:19:32.201Z,25.49
2022-09-26T12:22:29.893Z,24.50
2022-09-26T12:25:37.316Z,24.66
2022-09-26T12:28:06.268Z,25.67
2022-09-26T12:31:19.286Z,25.30
2022-09-26T12:33:55.514Z,25.36
2022-09-26T12:36:55.413Z,25.80
2022-09-26T12:39:35.945Z,24.89
2022-09-26T12:42:08.697Z,24.97
2022-09-26T12:44:55.924Z,25.82
2022-09-26T12:47:47.928Z,25.81
2022-09-26T12:50:30.991Z,24.95
2022-09-26T12:53:19.499Z,25.52
2022-09-26T12:56:06.979Z,27.06
2022-09-26T12:59:12.452Z,26.72
2022-09-26T13:01:49.883Z,23.95
2022-09-26T13:04:25.095Z,23.05
2022-09-26T13:07:19.868Z,23.47
2022-09-26T13:10:10.964Z,23.01
2022-09-26T13:12:56.529Z,23.32
2022-09-26T13:15:37.413Z,22.02
2022-09-26T13:18:44.972Z,22.72
2022-09-26T13:21:16.762Z,22.25
2022-09-26T13:23:47.802Z,21.85
2022-09-26T13:26:45.382Z,22.71
2022-09-26T13:29:38.543Z,22.64
2022-09-26T13:32:23.294Z,22.58
2022-09-26T13:35:14.855Z,21.92
2022-09-26T13:37:57.856Z,22.09
2022-09-26T13:41:01.675Z,24.22
2022-09-26T13:43:44.547Z,24.15
2022-09-26T13:46:21.155Z,23.19
2022-09-26T13:49:25.285Z,24.36
2022-09-26T13:52:02.845Z,24.47
2022-09-26T13:54:54.318Z,22.90
2022-09-26T13:57:31.986Z,23.03
2022-09-26T13:59:59.180Z,23.98
2022-09-26T14:02:29.555Z,23.20
2022-09-26T14:04:59.290Z,22.89
2022-09-26T14:07:56.536Z,23.16
2022-09-26T14:10:32.495Z,22.45
2022-09-26T14:13:06.785Z,22.36
2022-09-26T14:15:48.812Z,22.14
2022-09-26T14:18:48.839Z,24.05
2022-09-26T14:21:33.795Z,24.79
2022-09-26T14:24:38.180Z,25.35
2022-09-26T14:27:11.282Z,25.69
2022-09-26T14:29:42.582Z,24.90
2022-09-26T14:32:10.556Z,24.52
2022-09-26T14:34:57.521Z,23.93
2022-09-26T14:37:24.458Z,24.12
2022-09-26T14:40:00.189Z,24.63
2022-09-26T14:42:32.010Z,25.35
2022-09-26T14:45:01.923Z,25.11
2022-09-26T14:47:37.457Z,24.63
2022-09-26T14:50:07.186Z,24.83
2022-09-26T14:52:34.647Z,24.57
2022-09-26T14:55:02.309Z,24.50
2022-09-26T14:57:31.903Z,25.58
2022-09-26T15:00:00.178Z,24.94
2022-09-26T15:02:38.488Z,24.59
2022-09-26T15:05:17.367Z,24.83
2022-09-26T15:07:49.827Z,24.29
2022-09-26T15:10:37.209Z,24.05
2022-09-26T15:13:14.970Z,25.09
2022-09-26T15:15:57.029Z,25.27
2022-09-26T15:18:27.030Z,24.58
2022-09-26T15:21:06.345Z,25.20
2022-09-26T15:23:35.159Z,26.04
2022-09-26T15:26:02.912Z,25.97
2022-09-26T15:28:34.357Z,26.24
2022-09-26T15:31:27.340Z,26.33
2022-09-26T15:34:02.431Z,25.29
2022-09-26T15:36:34.351Z,25.68
2022-09-26T15:39:02.246Z,25.93
2022-09-26T15:41:47.485Z,25.89
2022-09-26T15:44:23.644Z,25.11
2022-09-26T15:46:51.229Z,23.55
2022-09-26T15:49:23.060Z,24.51
2022-09-26T15:51:53.392Z,24.34
2022-09-26T15:54:28.061Z,24.19
2022-09-26T15:56:57.802Z,24.43
2022-09-26T15:59:38.608Z,24.82
2022-09-26T16:02:26.532Z,24.74
2022-09-26T16:04:54.997Z,25.01
2022-09-26T16:07:25.078Z,24.64
2022-09-26T16:09:52.107Z,24.81
2022-09-26T16:12:20.940Z,24.84
2022-09-26T16:14:50.783Z,25.17
2022-09-26T16:17:32.512Z,24.94
2022-09-26T16:20:03.956Z,25.59
2022-09-26T16:22:37.020Z,25.50
2022-09-26T16:25:19.137Z,25.07
2022-09-26T16:27:47.393Z,24.62
2022-09-26T16:30:30.144Z,24.44
2022-09-26T16:33:21.655Z,24.12
2022-09-26T16:35:48.842Z,24.09
2022-09-26T16:38:36.303Z,23.86
2022-09-26T16:41:09.841Z,24.22
2022-09-26T16:43:37.761Z,24.81
2022-09-26T16:46:09.477Z,24.09
2022-09-26T16:48:41.258Z,24.23
2022-09-26T16:51:17.795Z,24.08
2022-09-26T16:53:48.929Z,23.59
2022-09-26T16:56:17.730Z,23.93
2022-09-26T16:59:17.453Z,23.39
2022-09-26T17:01:56.004Z,23.22
2022-09-26T17:04:31.496Z,23.00
2022-09-26T17:07:06.262Z,23.67
2022-09-26T17:09:34.640Z,22.56
2022-09-26T17:12:13.414Z,22.12
2022-09-26T17:14:41.619Z,22.66
2022-09-26T17:17:14.175Z,23.02
2022-09-26T17:19:41.854Z,22.15
2022-09-26T17:22:20.104Z,22.57
2022-09-26T17:24:51.928Z,22.43
2022-09-26T17:27:27.221Z,21.91
2022-09-26T17:29:58.983Z,22.42
2022-09-26T17:32:33.677Z,22.06
2022-09-26T17:35:03.989Z,22.06
2022-09-26T17:37:31.209Z,22.17
2022-09-26T17:39:58.161Z,21.86
2022-09-26T17:42:25.477Z,21.34
2022-09-26T17:44:52.394Z,21.29
2022-09-26T17:47:19.540Z,20.62
2022-09-26T17:49:57.460Z,20.66
2022-09-26T17:52:29.478Z,21.59
2022-09-26T17:54:58.989Z,22.23
2022-09-26T17:57:30.118Z,21.52
2022-09-26T17:59:58.028Z,20.98
2022-09-26T18:02:31.912Z,20.76
2022-09-26T18:05:03.454Z,21.42
2022-09-26T18:07:40.677Z,21.21
2022-09-26T18:10:17.174Z,21.12
2022-09-26T18:12:45.391Z,20.51
2022-09-26T18:15:16.491Z,20.88
2022-09-26T18:17:43.693Z,20.71
2022-09-26T18:20:10.870Z,20.23
2022-09-26T18:22:37.785Z,20.06
2022-09-26T18:25:07.479Z,20.35
2022-09-26T18:27:36.793Z,20.68
2022-09-26T18:30:04.748Z,19.14
2022-09-26T18:32:32.890Z,19.52
2022-09-26T18:35:00.266Z,19.57
2022-09-26T18:37:27.205Z,19.34
2022-09-26T18:39:56.347Z,19.59
2022-09-26T18:42:24.940Z,19.19
2022-09-26T18:45:05.351Z,19.26
2022-09-26T18:47:42.678Z,18.93
2022-09-26T18:50:19.720Z,18.94
2022-09-26T18:52:46.696Z,19.60
2022-09-26T18:55:38.720Z,19.63
2022-09-26T18:58:23.938Z,19.94
2022-09-26T19:00:56.751Z,20.65
2022-09-26T19:03:25.380Z,20.74
2022-09-26T19:05:53.514Z,20.14
2022-09-26T19:08:33.062Z,20.00
2022-09-26T19:11:12.973Z,20.25
2022-09-26T19:13:41.138Z,20.85
2022-09-26T19:16:08.762Z,20.46
2022-09-26T19:18:36.023Z,21.39
2022-09-26T19:21:05.362Z,21.46
2022-09-26T19:23:35.622Z,21.22
2022-09-26T19:26:04.492Z,21.23
2022-09-26T19:28:34.821Z,21.47
2022-09-26T19:31:03.240Z,21.36
2022-09-26T19:33:30.371Z,21.31
2022-09-26T19:35:57.271Z,21.71
2022-09-26T19:38:26.351Z,21.07
2022-09-26T19:40:54.045Z,20.48
2022-09-26T19:43:21.720Z,20.10
2022-09-26T19:45:51.556Z,20.34
2022-09-26T19:48:20.365Z,21.23
2022-09-26T19:50:48.568Z,21.01
2022-09-26T19:53:20.389Z,20.66
2022-09-26T19:55:50.373Z,21.52
2022-09-26T19:58:22.506Z,21.60
2022-09-26T20:00:51.792Z,21.05
2022-09-26T20:03:21.182Z,20.41
2022-09-26T20:05:49.562Z,20.32
2022-09-26T20:08:19.669Z,20.15
2022-09-26T20:10:46.691Z,20.12
2022-09-26T20:13:13.639Z,20.06
2022-09-26T20:15:40.614Z,20.51
2022-09-26T20:18:08.502Z,20.59
2022-09-26T20:20:36.235Z,20.74
2022-09-26T20:23:03.157Z,20.53
2022-09-26T20:25:32.068Z,20.22
2022-09-26T20:28:00.721Z,20.15
2022-09-26T20:30:46.528Z,20.48
2022-09-26T20:33:13.563Z,20.78
2022-09-26T20:35:45.640Z,20.89
2022-09-26T20:38:18.531Z,20.41
2022-09-26T20:40:46.391Z,20.62
2022-09-26T20:43:16.820Z,20.49
2022-09-26T20:45:45.069Z,20.68
2022-09-26T20:48:20.557Z,20.82
2022-09-26T20:50:48.628Z,20.72
2022-09-26T20:53:25.152Z,20.84
2022-09-26T20:55:53.694Z,20.97
2022-09-26T20:58:20.605Z,20.91
2022-09-26T21:00:47.887Z,21.02
2022-09-26T21:03:17.371Z,20.70
2022-09-26T21:05:44.584Z,21.02
2022-09-26T21:08:27.561Z,21.62
2022-09-26T21:10:56.285Z,21.20
2022-09-26T21:13:23.746Z,21.02
2022-09-26T21:15:51.814Z,21.31
2022-09-26T21:18:24.335Z,21.05
2022-09-26T21:20:52.330Z,21.18
2022-09-26T21:23:20.294Z,21.22
2022-09-26T21:25:47.371Z,20.94
2022-09-26T21:28:27.204Z,20.77
2022-09-26T21:30:58.952Z,20.84
2022-09-26T21:33:26.189Z,20.90
2022-09-26T21:35:53.214Z,20.21
2022-09-26T21:38:21.632Z,20.08
2022-09-26T21:40:52.967Z,19.58
2022-09-26T21:43:22.331Z,19.71
2022-09-26T21:45:49.292Z,19.99
2022-09-26T21:48:16.847Z,20.10
2022-09-26T21:51:03.997Z,20.64
2022-09-26T21:53:37.652Z,20.56
2022-09-26T21:56:11.369Z,20.30
2022-09-26T21:58:40.219Z,20.39
2022-09-26T22:01:07.593Z,20.73
2022-09-26T22:03:34.778Z,20.72
2022-09-26T22:06:07.204Z,20.69
2022-09-26T22:08:34.696Z,20.95
2022-09-26T22:11:03.390Z,21.06
2022-09-26T22:13:30.690Z,20.87
2022-09-26T22:16:07.129Z,20.60
2022-09-26T22:18:34.893Z,20.66
2022-09-26T22:21:03.987Z,20.68
2022-09-26T22:23:32.364Z,20.88
2022-09-26T22:25:59.369Z,20.09
2022-09-26T22:28:26.549Z,20.89
2022-09-26T22:30:54.849Z,21.21
2022-09-26T22:33:23.014Z,21.06
2022-09-26T22:35:51.053Z,21.22
2022-09-26T22:38:21.099Z,21.20
2022-09-26T22:41:01.986Z,20.87
2022-09-26T22:43:29.623Z,21.40
2022-09-26T22:46:12.642Z,21.21
2022-09-26T22:48:42.612Z,21.08
2022-09-26T22:51:10.048Z,21.27
2022-09-26T22:53:38.561Z,21.47
2022-09-26T22:56:06.911Z,20.88
2022-09-26T22:58:38.327Z,20.00
2022-09-26T23:01:07.889Z,20.33
2022-09-26T23:03:35.368Z,20.60
2022-09-26T23:06:03.118Z,20.94
2022-09-26T23:08:30.444Z,21.47
2022-09-26T23:10:57.800Z,21.76
2022-09-26T23:13:28.319Z,20.98
2022-09-26T23:15:55.597Z,20.40
2022-09-26T23:18:22.501Z,20.62
2022-09-26T23:20:49.463Z,20.15
2022-09-26T23:23:16.407Z,20.04
2022-09-26T23:25:47.892Z,20.01
2022-09-26T23:28:15.482Z,19.92
2022-09-26T23:30:42.767Z,19.68
2022-09-26T23:33:10.302Z,19.51
2022-09-26T23:35:37.380Z,18.52
2022-09-26T23:38:05.479Z,18.99
2022-09-26T23:40:33.038Z,19.52
2022-09-26T23:43:00.138Z,19.40
2022-09-26T23:45:27.300Z,19.58
2022-09-26T23:47:54.262Z,19.59
2022-09-26T23:50:21.572Z,20.37
2022-09-26T23:52:48.561Z,20.50
2022-09-26T23:55:15.825Z,20.30
2022-09-26T23:57:42.738Z,20.39
